Time;durP1;ratioP1;P1;durP2;ratioP2;P2;SDS_P1;SDS_P2;PMS_P1;PMS_P2;Temp;Humidity;BMP_temperature;BMP_pressure;BME280_temperature;BME280_humidity;BME280_pressure;Samples;Min_cycle;Max_cycle;Signal;HPM_P1;HPM_P2
2022/01/15 00:00:37;;;;;;;;;;;;;;;;;;4994789;28;19922;-67
2022/01/15 00:03:02;;;;;;;;;;;;;;;;;;4999932;28;20020;-67
2022/01/15 00:05:28;;;;;;;;;;;;;;;;;;5001720;28;19924;-67
2022/01/15 00:07:53;;;;;;;;;;;;;;;;;;5001043;28;20048;-67
2022/01/15 00:10:20;;;;;;;;;;;;;;;;;;5006795;28;19964;-67
2022/01/15 00:12:45;;;;;;;;;;;;;;;;;;5018876;28;20329;-67
2022/01/15 00:15:18;;;;;;;;;;;;;;;;;;5002872;28;19914;-67
2022/01/15 00:18:06;;;;;;;;;;;;;;;;;;5019478;28;20385;-67
2022/01/15 00:20:31;;;;;;;;;;;;;;;;;;5002523;28;19913;-67
2022/01/15 00:22:56;;;;;;;;;;;;;;;;;;5008861;28;19920;-67
2022/01/15 00:25:21;;;;;;;;;;;;;;;;;;5027164;28;20376;-67
2022/01/15 00:27:46;;;;;;;;;;;;;;;;;;5062790;28;20007;-67
2022/01/15 00:30:11;;;;;;;;;;;;;;;;;;5059432;28;19928;-67
2022/01/15 00:32:36;;;;;;;;;;;;;;;;;;5061677;28;19912;-67
2022/01/15 00:35:02;;;;;;;;;;;;;;;;;;5058683;28;19932;-67
2022/01/15 00:37:30;;;;;;;;;;;;;;;;;;5058646;28;19970;-66
2022/01/15 00:39:56;;;;;;;;;;;;;;;;;;5058934;28;20406;-66
2022/01/15 00:42:21;;;;;;;;;;;;;;;;;;5059029;28;19920;-67
2022/01/15 00:44:49;;;;;;;;;;;;;;;;;;5062747;28;19912;-67
2022/01/15 00:47:14;;;;;;;;;;;;;;;;;;5065898;28;20419;-66
2022/01/15 00:49:39;;;;;;;;;;;;;;;;;;5063570;28;19916;-66
2022/01/15 00:52:04;;;;;;;;;;;;;;;;;;5062583;28;19919;-67
2022/01/15 00:54:30;;;;;;;;;;;;;;;;;;5062915;28;20004;-66
2022/01/15 00:56:55;;;;;;;;;;;;;;;;;;5067149;28;19968;-66
2022/01/15 00:59:20;;;;;;;;;;;;;;;;;;5063404;28;19913;-66
2022/01/15 01:01:45;;;;;;;;;;;;;;;;;;5068257;28;19916;-67
2022/01/15 01:04:10;;;;;;;;;;;;;;;;;;5063002;28;19917;-66
2022/01/15 01:06:35;;;;;;;;;;;;;;;;;;5069422;28;19908;-66
2022/01/15 01:09:00;;;;;;;;;;;;;;;;;;5073949;28;19913;-66
2022/01/15 01:11:44;;;;;;;;;;;;;;;;;;5058483;28;20003;-66
2022/01/15 01:24:47;;;;;;;;;;;;;;;;;;5058168;28;19935;-66
2022/01/15 01:27:20;;;;;;;;;;;;;;;;;;5057860;28;19916;-66
2022/01/15 01:32:26;;;;;;;;;;;;;;;;;;5063121;28;19916;-66
2022/01/15 01:34:52;;;;;;;;;;;;;;;;;;5062814;28;20009;-66
2022/01/15 01:37:25;;;;;;;;;;;;;;;;;;5076023;28;19974;-66
2022/01/15 01:39:55;;;;;;;;;;;;;;;;;;5058056;28;20015;-66
2022/01/15 01:44:45;;;;;;;;;;;;;;;;;;5060174;28;19912;-67
2022/01/15 01:47:23;;;;;;;;;;;;;;;;;;5062271;28;19967;-66
2022/01/15 01:49:48;;;;;;;;;;;;;;;;;;5059145;28;19917;-66
2022/01/15 01:52:13;;;;;;;;;;;;;;;;;;5059236;28;20427;-67
2022/01/15 01:54:41;;;;;;;;;;;;;;;;;;5059946;28;20301;-66
2022/01/15 01:57:06;;;;;;;;;;;;;;;;;;5058579;28;19916;-66
2022/01/15 01:59:32;;;;;;;;;;;;;;;;;;5057892;28;19982;-66
2022/01/15 02:01:58;;;;;;;;;;;;;;;;;;5067987;28;20668;-67
2022/01/15 02:04:23;;;;;;;;;;;;;;;;;;5059514;28;20440;-66
2022/01/15 02:06:48;;;;;;;;;;;;;;;;;;5061615;28;19965;-66
2022/01/15 02:09:13;;;;;;;;;;;;;;;;;;5061541;28;19912;-66
2022/01/15 02:11:39;;;;;;;;;;;;;;;;;;5069901;28;20395;-66
2022/01/15 02:14:04;;;;;;;;;;;;;;;;;;5066444;28;20011;-66
2022/01/15 02:16:30;;;;;;;;;;;;;;;;;;5065210;28;20007;-66
2022/01/15 02:18:55;;;;;;;;;;;;;;;;;;5068805;28;19912;-66
2022/01/15 02:23:47;;;;;;;;;;;;;;;;;;5064831;28;19964;-66
2022/01/15 02:26:13;;;;;;;;;;;;;;;;;;5064891;28;20007;-66
2022/01/15 02:28:38;;;;;;;;;;;;;;;;;;5059804;28;19959;-66
2022/01/15 02:31:03;;;;;;;;;;;;;;;;;;5060248;28;19959;-66
2022/01/15 02:33:28;;;;;;;;;;;;;;;;;;5061487;28;19946;-66
2022/01/15 02:35:53;;;;;;;;;;;;;;;;;;5073141;28;19912;-66
2022/01/15 02:38:18;;;;;;;;;;;;;;;;;;5061013;28;19973;-66
2022/01/15 02:40:43;;;;;;;;;;;;;;;;;;5061698;28;19971;-66
2022/01/15 02:43:10;;;;;;;;;;;;;;;;;;5068348;28;19916;-66
2022/01/15 02:45:37;;;;;;;;;;;;;;;;;;5066526;28;19938;-66
2022/01/15 02:48:03;;;;;;;;;;;;;;;;;;5060651;28;20007;-66
2022/01/15 02:50:28;;;;;;;;;;;;;;;;;;5061516;28;20034;-66
2022/01/15 02:52:53;;;;;;;;;;;;;;;;;;5061492;28;19916;-66
2022/01/15 02:55:18;;;;;;;;;;;;;;;;;;5060626;28;20406;-66
2022/01/15 02:57:43;;;;;;;;;;;;;;;;;;5060960;28;19919;-66
2022/01/15 03:00:08;;;;;;;;;;;;;;;;;;5061026;28;20406;-66
2022/01/15 03:02:33;;;;;;;;;;;;;;;;;;5061438;28;19921;-66
2022/01/15 03:04:58;;;;;;;;;;;;;;;;;;5062186;28;19912;-66
2022/01/15 03:07:24;;;;;;;;;;;;;;;;;;5069869;28;19920;-66
2022/01/15 03:09:49;;;;;;;;;;;;;;;;;;5060692;28;20015;-66
2022/01/15 03:12:14;;;;;;;;;;;;;;;;;;5060691;28;19963;-66
2022/01/15 03:14:39;;;;;;;;;;;;;;;;;;5061208;28;19928;-66
2022/01/15 03:17:04;;;;;;;;;;;;;;;;;;5065708;28;19999;-66
2022/01/15 03:19:29;;;;;;;;;;;;;;;;;;5068699;28;19978;-66
2022/01/15 03:21:55;;;;;;;;;;;;;;;;;;5067172;28;19919;-66
2022/01/15 03:24:21;;;;;;;;;;;;;;;;;;5060991;28;19920;-66
2022/01/15 03:26:53;;;;;;;;;;;;;;;;;;5060752;28;19917;-66
2022/01/15 03:29:18;;;;;;;;;;;;;;;;;;5061017;28;19912;-66
2022/01/15 03:31:43;;;;;;;;;;;;;;;;;;5059988;28;19940;-66
2022/01/15 03:34:08;;;;;;;;;;;;;;;;;;5055570;28;19912;-66
2022/01/15 03:36:36;;;;;;;;;;;;;;;;;;5062228;28;19917;-66
2022/01/15 03:39:01;;;;;;;;;;;;;;;;;;5056928;28;19921;-66
2022/01/15 03:41:26;;;;;;;;;;;;;;;;;;5056436;28;19931;-66
2022/01/15 03:43:51;;;;;;;;;;;;;;;;;;5059931;28;19928;-66
2022/01/15 03:46:16;;;;;;;;;;;;;;;;;;5060038;28;19962;-66
2022/01/15 03:48:42;;;;;;;;;;;;;;;;;;5060231;28;20388;-66
2022/01/15 03:51:07;;;;;;;;;;;;;;;;;;5060626;28;19917;-66
2022/01/15 03:53:34;;;;;;;;;;;;;;;;;;5070733;28;19912;-66
2022/01/15 03:55:59;;;;;;;;;;;;;;;;;;5069381;28;19912;-66
2022/01/15 03:58:24;;;;;;;;;;;;;;;;;;5064714;28;19931;-69
2022/01/15 04:00:50;;;;;;;;;;;;;;;;;;5064333;28;20375;-68
2022/01/15 04:03:15;;;;;;;;;;;;;;;;;;5063962;28;19931;-68
2022/01/15 04:05:40;;;;;;;;;;;;;;;;;;5067902;28;20014;-68
2022/01/15 04:08:05;;;;;;;;;;;;;;;;;;5071108;28;19954;-68
2022/01/15 04:10:33;;;;;;;;;;;;;;;;;;5066746;28;19927;-68
2022/01/15 04:12:58;;;;;;;;;;;;;;;;;;5066325;28;20398;-68
2022/01/15 04:15:25;;;;;;;;;;;;;;;;;;5064101;28;19952;-68
2022/01/15 04:17:50;;;;;;;;;;;;;;;;;;5058931;28;19959;-68
2022/01/15 04:20:20;;;;;;;;;;;;;;;;;;5068045;28;20538;-68
2022/01/15 04:22:47;;;;;;;;;;;;;;;;;;5063370;28;19920;-68
2022/01/15 04:25:13;;;;;;;;;;;;;;;;;;5068458;28;19919;-68
2022/01/15 04:27:38;;;;;;;;;;;;;;;;;;5074523;28;19916;-68
2022/01/15 04:30:04;;;;;;;;;;;;;;;;;;5064004;28;19921;-68
2022/01/15 04:32:29;;;;;;;;;;;;;;;;;;5064062;28;20003;-68
2022/01/15 04:34:55;;;;;;;;;;;;;;;;;;5063254;28;19967;-68
2022/01/15 04:37:22;;;;;;;;;;;;;;;;;;5069208;28;19913;-68
2022/01/15 04:39:48;;;;;;;;;;;;;;;;;;5063276;28;19957;-68
2022/01/15 04:42:15;;;;;;;;;;;;;;;;;;5069256;28;19916;-69
2022/01/15 04:44:40;;;;;;;;;;;;;;;;;;5067733;28;19959;-68
2022/01/15 04:47:07;;;;;;;;;;;;;;;;;;5074938;28;19951;-68
2022/01/15 04:49:32;;;;;;;;;;;;;;;;;;5070130;28;19951;-68
2022/01/15 04:51:58;;;;;;;;;;;;;;;;;;5072709;28;19958;-68
2022/01/15 04:54:25;;;;;;;;;;;;;;;;;;5063318;28;19928;-68
2022/01/15 04:56:50;;;;;;;;;;;;;;;;;;5065890;28;19909;-68
2022/01/15 04:59:18;;;;;;;;;;;;;;;;;;5063449;28;19938;-68
2022/01/15 05:01:45;;;;;;;;;;;;;;;;;;5063823;28;19936;-68
2022/01/15 05:04:10;;;;;;;;;;;;;;;;;;5063341;28;20329;-68
2022/01/15 05:06:35;;;;;;;;;;;;;;;;;;5073124;28;20588;-68
2022/01/15 05:09:05;;;;;;;;;;;;;;;;;;5063553;28;19920;-68
2022/01/15 05:11:44;;;;;;;;;;;;;;;;;;5063172;28;20298;-69
2022/01/15 05:14:10;;;;;;;;;;;;;;;;;;5072628;28;20300;-69
2022/01/15 05:16:36;;;;;;;;;;;;;;;;;;5063260;28;20110;-69
2022/01/15 05:19:01;;;;;;;;;;;;;;;;;;5063067;28;19944;-69
2022/01/15 05:21:26;;;;;;;;;;;;;;;;;;5063130;28;19912;-69
2022/01/15 05:23:51;;;;;;;;;;;;;;;;;;5063319;28;20428;-69
2022/01/15 05:26:16;;;;;;;;;;;;;;;;;;5062411;28;19916;-69
2022/01/15 05:28:41;;;;;;;;;;;;;;;;;;5065962;28;19912;-69
2022/01/15 05:31:07;;;;;;;;;;;;;;;;;;5071407;28;19917;-69
2022/01/15 05:33:33;;;;;;;;;;;;;;;;;;5062879;28;19916;-69
2022/01/15 05:35:58;;;;;;;;;;;;;;;;;;5069045;28;19913;-69
2022/01/15 05:38:23;;;;;;;;;;;;;;;;;;5062210;28;19923;-69
2022/01/15 05:40:48;;;;;;;;;;;;;;;;;;5064413;28;19917;-69
2022/01/15 05:43:13;;;;;;;;;;;;;;;;;;5062402;28;19920;-69
2022/01/15 05:45:39;;;;;;;;;;;;;;;;;;5063105;28;20359;-69
2022/01/15 05:48:06;;;;;;;;;;;;;;;;;;5071212;28;20413;-69
2022/01/15 05:50:31;;;;;;;;;;;;;;;;;;5062621;28;19954;-69
2022/01/15 05:52:58;;;;;;;;;;;;;;;;;;5071887;28;19955;-69
2022/01/15 05:55:23;;;;;;;;;;;;;;;;;;5062471;28;19921;-69
2022/01/15 05:57:49;;;;;;;;;;;;;;;;;;5073730;28;19919;-69
2022/01/15 06:00:14;;;;;;;;;;;;;;;;;;5062751;28;20370;-69
2022/01/15 06:02:39;;;;;;;;;;;;;;;;;;5062329;28;19920;-69
2022/01/15 06:05:04;;;;;;;;;;;;;;;;;;5065213;28;19916;-69
2022/01/15 06:07:29;;;;;;;;;;;;;;;;;;5066280;28;20308;-69
2022/01/15 06:09:54;;;;;;;;;;;;;;;;;;5061601;28;19921;-69
2022/01/15 06:12:27;;;;;;;;;;;;;;;;;;5063308;28;19962;-69
2022/01/15 06:14:52;;;;;;;;;;;;;;;;;;5071621;28;19923;-69
2022/01/15 06:17:17;;;;;;;;;;;;;;;;;;5061985;28;20014;-69
2022/01/15 06:19:43;;;;;;;;;;;;;;;;;;5061674;28;19964;-69
2022/01/15 06:22:08;;;;;;;;;;;;;;;;;;5061325;28;19932;-69
2022/01/15 06:24:33;;;;;;;;;;;;;;;;;;5062061;28;19958;-69
2022/01/15 06:26:58;;;;;;;;;;;;;;;;;;5065551;28;19913;-69
2022/01/15 06:29:23;;;;;;;;;;;;;;;;;;5062031;28;19946;-69
2022/01/15 06:31:48;;;;;;;;;;;;;;;;;;5067199;28;19912;-69
2022/01/15 06:34:13;;;;;;;;;;;;;;;;;;5061619;28;19952;-69
2022/01/15 06:36:38;;;;;;;;;;;;;;;;;;5061093;28;19917;-71
2022/01/15 06:39:03;;;;;;;;;;;;;;;;;;5060484;28;19921;-70
2022/01/15 06:41:29;;;;;;;;;;;;;;;;;;5064945;28;19934;-69
2022/01/15 06:43:54;;;;;;;;;;;;;;;;;;5061303;28;20392;-71
2022/01/15 06:46:19;;;;;;;;;;;;;;;;;;5065827;28;20628;-70
2022/01/15 06:48:46;;;;;;;;;;;;;;;;;;5067615;28;19913;-70
2022/01/15 06:51:11;;;;;;;;;;;;;;;;;;5061383;28;19916;-70
2022/01/15 06:53:36;;;;;;;;;;;;;;;;;;5065615;28;19916;-70
2022/01/15 06:56:02;;;;;;;;;;;;;;;;;;5063675;28;20051;-71
2022/01/15 06:58:27;;;;;;;;;;;;;;;;;;5070719;28;19912;-69
2022/01/15 07:00:58;;;;;;;;;;;;;;;;;;5068812;28;19973;-71
2022/01/15 07:03:25;;;;;;;;;;;;;;;;;;5060430;28;19924;-69
2022/01/15 07:05:53;;;;;;;;;;;;;;;;;;5061161;28;19916;-71
2022/01/15 07:08:18;;;;;;;;;;;;;;;;;;5061084;28;19921;-69
2022/01/15 07:10:43;;;;;;;;;;;;;;;;;;5061977;28;19931;-69
2022/01/15 07:13:09;;;;;;;;;;;;;;;;;;5069973;28;19936;-69
2022/01/15 07:15:34;;;;;;;;;;;;;;;;;;5061073;28;20442;-69
2022/01/15 07:17:59;;;;;;;;;;;;;;;;;;5063923;28;19996;-69
2022/01/15 07:20:26;;;;;;;;;;;;;;;;;;5060998;28;19955;-69
2022/01/15 07:22:52;;;;;;;;;;;;;;;;;;5060947;28;19912;-69
2022/01/15 07:25:17;;;;;;;;;;;;;;;;;;5065728;28;19927;-69
2022/01/15 07:27:44;;;;;;;;;;;;;;;;;;5066676;28;19950;-69
2022/01/15 07:30:11;;;;;;;;;;;;;;;;;;5060694;28;20215;-69
2022/01/15 07:32:37;;;;;;;;;;;;;;;;;;5067179;28;20663;-69
2022/01/15 07:35:02;;;;;;;;;;;;;;;;;;5060527;28;19912;-69
2022/01/15 07:37:27;;;;;;;;;;;;;;;;;;5060583;28;19939;-69
2022/01/15 07:39:55;;;;;;;;;;;;;;;;;;5065934;28;19912;-69
2022/01/15 07:42:20;;;;;;;;;;;;;;;;;;5065572;28;19912;-69
2022/01/15 07:44:45;;;;;;;;;;;;;;;;;;5068807;28;19922;-69
2022/01/15 07:47:12;;;;;;;;;;;;;;;;;;5070532;28;19913;-68
2022/01/15 07:49:37;;;;;;;;;;;;;;;;;;5061178;28;20095;-69
2022/01/15 07:52:02;;;;;;;;;;;;;;;;;;5061249;28;20365;-69
2022/01/15 07:54:27;;;;;;;;;;;;;;;;;;5061167;28;19948;-69
2022/01/15 07:56:55;;;;;;;;;;;;;;;;;;5061029;28;20660;-69
2022/01/15 07:59:20;;;;;;;;;;;;;;;;;;5060979;28;19916;-69
2022/01/15 08:01:45;;;;;;;;;;;;;;;;;;5059984;28;19913;-69
2022/01/15 08:04:10;;;;;;;;;;;;;;;;;;5059775;28;20338;-69
2022/01/15 08:06:40;;;;;;;;;;;;;;;;;;5060689;28;19999;-69
2022/01/15 08:09:05;;;;;;;;;;;;;;;;;;5069740;28;19938;-69
2022/01/15 08:11:30;;;;;;;;;;;;;;;;;;5061045;28;19917;-69
2022/01/15 08:13:55;;;;;;;;;;;;;;;;;;5060720;28;19912;-69
2022/01/15 08:16:20;;;;;;;;;;;;;;;;;;5061309;28;19934;-69
2022/01/15 08:18:46;;;;;;;;;;;;;;;;;;5060136;28;19953;-69
2022/01/15 08:21:11;;;;;;;;;;;;;;;;;;5060704;28;19916;-69
2022/01/15 08:23:37;;;;;;;;;;;;;;;;;;5060499;28;19919;-68
2022/01/15 08:26:03;;;;;;;;;;;;;;;;;;5060998;28;20320;-69
2022/01/15 08:28:28;;;;;;;;;;;;;;;;;;5060934;28;19913;-68
2022/01/15 08:30:53;;;;;;;;;;;;;;;;;;5063394;28;19924;-69
2022/01/15 08:33:18;;;;;;;;;;;;;;;;;;5064177;28;19999;-69
2022/01/15 08:35:43;;;;;;;;;;;;;;;;;;5064399;28;19979;-69
2022/01/15 08:38:09;;;;;;;;;;;;;;;;;;5062008;28;19916;-69
2022/01/15 08:40:34;;;;;;;;;;;;;;;;;;5055049;28;20328;-69
2022/01/15 08:42:59;;;;;;;;;;;;;;;;;;5059654;28;19942;-69
2022/01/15 08:45:26;;;;;;;;;;;;;;;;;;5063118;28;19913;-69
2022/01/15 08:47:54;;;;;;;;;;;;;;;;;;5053292;28;19932;-69
2022/01/15 08:50:19;;;;;;;;;;;;;;;;;;5056599;28;20384;-71
2022/01/15 08:52:44;;;;;;;;;;;;;;;;;;5052411;28;19940;-69
2022/01/15 08:55:09;;;;;;;;;;;;;;;;;;5057813;28;19912;-69
2022/01/15 08:57:35;;;;;;;;;;;;;;;;;;5062313;28;19936;-69
2022/01/15 09:00:00;;;;;;;;;;;;;;;;;;5068874;28;20359;-69
2022/01/15 09:02:25;;;;;;;;;;;;;;;;;;5058475;28;19913;-69
2022/01/15 09:04:50;;;;;;;;;;;;;;;;;;5058732;28;19920;-69
2022/01/15 09:07:15;;;;;;;;;;;;;;;;;;5060851;28;19915;-69
2022/01/15 09:09:40;;;;;;;;;;;;;;;;;;5063063;28;19920;-69
2022/01/15 09:12:05;;;;;;;;;;;;;;;;;;5069940;28;19908;-69
2022/01/15 09:14:31;;;;;;;;;;;;;;;;;;5059695;28;19913;-69
2022/01/15 09:16:56;;;;;;;;;;;;;;;;;;5073813;28;20304;-69
2022/01/15 09:19:21;;;;;;;;;;;;;;;;;;5074738;28;19912;-69
2022/01/15 09:21:47;;;;;;;;;;;;;;;;;;5072793;28;19912;-69
2022/01/15 09:24:12;;;;;;;;;;;;;;;;;;5063368;28;19909;-69
2022/01/15 09:32:18;;;;;;;;;;;;;;;;;;5000190;28;20747;-69
2022/01/15 09:34:43;;;;;;;;;;;;;;;;;;5000179;28;20443;-69
2022/01/15 09:37:08;;;;;;;;;;;;;;;;;;5000068;28;19917;-69
2022/01/15 09:39:33;;;;;;;;;;;;;;;;;;4999694;28;20563;-69
2022/01/15 09:41:58;;;;;;;;;;;;;;;;;;5000314;28;19964;-69
2022/01/15 09:44:23;;;;;;;;;;;;;;;;;;4999408;28;19928;-69
2022/01/15 09:46:49;;;;;;;;;;;;;;;;;;5000116;28;19961;-69
2022/01/15 09:49:15;;;;;;;;;;;;;;;;;;4999508;28;19910;-69
2022/01/15 09:51:40;;;;;;;;;;;;;;;;;;4999942;28;19937;-69
2022/01/15 09:54:05;;;;;;;;;;;;;;;;;;5000281;28;19913;-69
2022/01/15 09:56:30;;;;;;;;;;;;;;;;;;4999976;28;20438;-69
2022/01/15 09:58:57;;;;;;;;;;;;;;;;;;4999340;28;19913;-69
2022/01/15 10:01:23;;;;;;;;;;;;;;;;;;4999986;28;20036;-69
2022/01/15 10:03:48;;;;;;;;;;;;;;;;;;4998407;28;19917;-69
2022/01/15 10:06:13;;;;;;;;;;;;;;;;;;5056765;28;20637;-69
2022/01/15 10:08:38;;;;;;;;;;;;;;;;;;5063558;28;20284;-69
2022/01/15 10:11:11;;;;;;;;;;;;;;;;;;5061957;28;19931;-69
2022/01/15 10:13:39;;;;;;;;;;;;;;;;;;5059472;28;19946;-69
2022/01/15 10:16:04;;;;;;;;;;;;;;;;;;5056608;28;19917;-69
2022/01/15 10:18:31;;;;;;;;;;;;;;;;;;5067423;28;19924;-69
2022/01/15 10:20:56;;;;;;;;;;;;;;;;;;5064335;28;19922;-69
2022/01/15 10:23:22;;;;;;;;;;;;;;;;;;5059311;28;19920;-69
2022/01/15 10:25:47;;;;;;;;;;;;;;;;;;5060814;28;20401;-69
2022/01/15 10:28:12;;;;;;;;;;;;;;;;;;5063493;28;20044;-69
2022/01/15 10:30:38;;;;;;;;;;;;;;;;;;5057997;28;20018;-69
2022/01/15 10:33:03;;;;;;;;;;;;;;;;;;5062181;28;19951;-69
2022/01/15 10:35:28;;;;;;;;;;;;;;;;;;5060558;28;20589;-69
2022/01/15 10:37:53;;;;;;;;;;;;;;;;;;5062373;28;19923;-69
2022/01/15 10:40:19;;;;;;;;;;;;;;;;;;5059394;28;20015;-69
2022/01/15 10:42:45;;;;;;;;;;;;;;;;;;5066601;28;20745;-69
2022/01/15 10:45:10;;;;;;;;;;;;;;;;;;5060149;28;20007;-69
2022/01/15 10:47:35;;;;;;;;;;;;;;;;;;5054882;28;19956;-69
2022/01/15 10:50:02;;;;;;;;;;;;;;;;;;5058639;28;19969;-69
2022/01/15 10:52:27;;;;;;;;;;;;;;;;;;5058411;28;19917;-69
2022/01/15 10:54:52;;;;;;;;;;;;;;;;;;5067308;28;20578;-69
2022/01/15 10:57:17;;;;;;;;;;;;;;;;;;5060421;28;19951;-69
2022/01/15 10:59:42;;;;;;;;;;;;;;;;;;5061107;28;19973;-69
2022/01/15 11:02:07;;;;;;;;;;;;;;;;;;5059900;28;20003;-69
2022/01/15 11:04:33;;;;;;;;;;;;;;;;;;5067512;28;19978;-69
2022/01/15 11:06:58;;;;;;;;;;;;;;;;;;5059378;28;19916;-69
2022/01/15 11:09:23;;;;;;;;;;;;;;;;;;5058065;28;19920;-69
2022/01/15 11:11:55;;;;;;;;;;;;;;;;;;5057980;28;20217;-69
2022/01/15 11:14:20;;;;;;;;;;;;;;;;;;5050084;28;19921;-69
2022/01/15 11:16:45;;;;;;;;;;;;;;;;;;5058348;28;19931;-69
2022/01/15 11:19:11;;;;;;;;;;;;;;;;;;5060339;28;19955;-69
2022/01/15 11:21:36;;;;;;;;;;;;;;;;;;5061748;28;19921;-69
2022/01/15 11:24:06;;;;;;;;;;;;;;;;;;5058649;28;19974;-69
2022/01/15 11:26:35;;;;;;;;;;;;;;;;;;5059560;28;20011;-69
2022/01/15 11:29:02;;;;;;;;;;;;;;;;;;5062732;28;19916;-69
2022/01/15 11:31:27;;;;;;;;;;;;;;;;;;5061738;28;19942;-69
2022/01/15 11:33:52;;;;;;;;;;;;;;;;;;5057408;28;19987;-69
2022/01/15 11:36:18;;;;;;;;;;;;;;;;;;5072548;28;19923;-69
2022/01/15 11:38:46;;;;;;;;;;;;;;;;;;5063026;28;19916;-69
2022/01/15 11:41:13;;;;;;;;;;;;;;;;;;5058565;28;20300;-69
2022/01/15 11:43:38;;;;;;;;;;;;;;;;;;5064626;28;19923;-69
2022/01/15 11:46:03;;;;;;;;;;;;;;;;;;5056953;28;19921;-69
2022/01/15 11:48:28;;;;;;;;;;;;;;;;;;5056652;28;19923;-69
2022/01/15 11:50:53;;;;;;;;;;;;;;;;;;5055357;28;19967;-69
2022/01/15 11:53:19;;;;;;;;;;;;;;;;;;5062918;28;19931;-69
2022/01/15 11:55:44;;;;;;;;;;;;;;;;;;5058601;28;19927;-69
2022/01/15 11:58:09;;;;;;;;;;;;;;;;;;5062586;28;19916;-69
2022/01/15 12:00:34;;;;;;;;;;;;;;;;;;5058983;28;19975;-69
2022/01/15 12:02:59;;;;;;;;;;;;;;;;;;5059579;28;19924;-69
2022/01/15 12:05:25;;;;;;;;;;;;;;;;;;5063303;28;19977;-69
2022/01/15 12:07:50;;;;;;;;;;;;;;;;;;5062871;28;19912;-69
2022/01/15 12:10:16;;;;;;;;;;;;;;;;;;5061902;28;19931;-69
2022/01/15 12:12:41;;;;;;;;;;;;;;;;;;5062770;28;19913;-69
2022/01/15 12:15:07;;;;;;;;;;;;;;;;;;5061823;28;19909;-69
2022/01/15 12:17:32;;;;;;;;;;;;;;;;;;5072852;28;19920;-69
2022/01/15 12:19:57;;;;;;;;;;;;;;;;;;5065541;28;19916;-69
2022/01/15 12:22:22;;;;;;;;;;;;;;;;;;5059250;28;20283;-69
2022/01/15 12:24:50;;;;;;;;;;;;;;;;;;5060940;28;20301;-69
2022/01/15 12:27:16;;;;;;;;;;;;;;;;;;5060552;28;19921;-69
2022/01/15 12:29:41;;;;;;;;;;;;;;;;;;5059519;28;20373;-69
2022/01/15 12:32:09;;;;;;;;;;;;;;;;;;5065699;28;19916;-69
2022/01/15 12:34:34;;;;;;;;;;;;;;;;;;5059935;28;19912;-69
2022/01/15 12:37:02;;;;;;;;;;;;;;;;;;5060644;28;20295;-69
2022/01/15 12:39:27;;;;;;;;;;;;;;;;;;5062733;28;19928;-69
2022/01/15 12:41:52;;;;;;;;;;;;;;;;;;5061205;28;19917;-69
2022/01/15 12:44:17;;;;;;;;;;;;;;;;;;5070336;28;19916;-69
2022/01/15 12:46:45;;;;;;;;;;;;;;;;;;5061363;28;19920;-69
2022/01/15 12:49:10;;;;;;;;;;;;;;;;;;5061017;28;19936;-69
2022/01/15 12:51:35;;;;;;;;;;;;;;;;;;5062513;28;19949;-69
2022/01/15 12:54:00;;;;;;;;;;;;;;;;;;5057612;28;19920;-69
2022/01/15 12:56:27;;;;;;;;;;;;;;;;;;5062423;28;19923;-69
2022/01/15 12:58:53;;;;;;;;;;;;;;;;;;5061902;28;19920;-69
2022/01/15 13:01:18;;;;;;;;;;;;;;;;;;5063134;28;19917;-69
2022/01/15 13:03:43;;;;;;;;;;;;;;;;;;5066149;28;19928;-69
2022/01/15 13:06:08;;;;;;;;;;;;;;;;;;5069387;28;20011;-69
2022/01/15 13:08:37;;;;;;;;;;;;;;;;;;5068104;28;20498;-69
2022/01/15 13:13:32;;;;;;;;;;;;;;;;;;5060449;28;20351;-69
2022/01/15 13:15:57;;;;;;;;;;;;;;;;;;5060056;28;20476;-69
2022/01/15 13:18:23;;;;;;;;;;;;;;;;;;5060312;28;19920;-69
2022/01/15 13:20:48;;;;;;;;;;;;;;;;;;5067369;28;19922;-69
2022/01/15 13:23:13;;;;;;;;;;;;;;;;;;5061443;28;19971;-69
2022/01/15 13:25:38;;;;;;;;;;;;;;;;;;5065975;28;20467;-69
2022/01/15 13:28:03;;;;;;;;;;;;;;;;;;5080312;28;20110;-69
2022/01/15 13:30:28;;;;;;;;;;;;;;;;;;5061246;28;19920;-69
2022/01/15 13:32:53;;;;;;;;;;;;;;;;;;5060110;28;19921;-69
2022/01/15 13:35:22;;;;;;;;;;;;;;;;;;5058665;28;19970;-69
2022/01/15 13:37:47;;;;;;;;;;;;;;;;;;5061339;28;20438;-69
2022/01/15 13:40:12;;;;;;;;;;;;;;;;;;5058856;28;19917;-69
2022/01/15 13:42:37;;;;;;;;;;;;;;;;;;5074186;28;19963;-69
2022/01/15 13:45:02;;;;;;;;;;;;;;;;;;5064950;28;19928;-69
2022/01/15 13:47:28;;;;;;;;;;;;;;;;;;5060399;28;20025;-69
2022/01/15 13:55:20;;;;;;;;;;;;;;;;;;5059667;28;19962;-69
2022/01/15 13:57:45;;;;;;;;;;;;;;;;;;5061717;28;19916;-68
2022/01/15 14:00:11;;;;;;;;;;;;;;;;;;5059928;28;20269;-69
2022/01/15 14:02:36;;;;;;;;;;;;;;;;;;5054201;28;19924;-69
2022/01/15 14:05:01;;;;;;;;;;;;;;;;;;5060058;28;20809;-69
2022/01/15 14:07:26;;;;;;;;;;;;;;;;;;5058754;28;20287;-69
2022/01/15 14:09:51;;;;;;;;;;;;;;;;;;5066911;28;19920;-69
2022/01/15 14:12:17;;;;;;;;;;;;;;;;;;5062903;28;19920;-69
2022/01/15 14:14:42;;;;;;;;;;;;;;;;;;5051239;28;20440;-69
2022/01/15 14:17:07;;;;;;;;;;;;;;;;;;5054402;28;19928;-69
2022/01/15 14:21:58;;;;;;;;;;;;;;;;;;5063996;28;19916;-69
2022/01/15 14:24:23;;;;;;;;;;;;;;;;;;5062818;28;19965;-69
2022/01/15 14:26:48;;;;;;;;;;;;;;;;;;5055543;28;20014;-69
2022/01/15 14:29:13;;;;;;;;;;;;;;;;;;5049122;28;20031;-69
2022/01/15 14:31:39;;;;;;;;;;;;;;;;;;5058633;28;19924;-69
2022/01/15 14:34:04;;;;;;;;;;;;;;;;;;5052123;28;19983;-69
2022/01/15 14:36:29;;;;;;;;;;;;;;;;;;5054573;28;19917;-68
2022/01/15 14:38:54;;;;;;;;;;;;;;;;;;5057595;28;19923;-68
2022/01/15 14:41:19;;;;;;;;;;;;;;;;;;5057142;28;19978;-69
2022/01/15 14:43:44;;;;;;;;;;;;;;;;;;5058452;28;19959;-69
2022/01/15 14:46:09;;;;;;;;;;;;;;;;;;5051947;28;20681;-68
2022/01/15 14:48:37;;;;;;;;;;;;;;;;;;5055843;28;20015;-69
2022/01/15 14:51:03;;;;;;;;;;;;;;;;;;5057925;28;19924;-69
2022/01/15 14:53:28;;;;;;;;;;;;;;;;;;5069870;28;19927;-69
2022/01/15 14:55:53;;;;;;;;;;;;;;;;;;5057822;28;19920;-69
2022/01/15 14:58:18;;;;;;;;;;;;;;;;;;5062914;28;19920;-68
2022/01/15 15:00:43;;;;;;;;;;;;;;;;;;5071240;28;20016;-68
2022/01/15 15:03:08;;;;;;;;;;;;;;;;;;5062929;28;19979;-68
2022/01/15 15:05:33;;;;;;;;;;;;;;;;;;5071408;28;19923;-69
2022/01/15 15:07:59;;;;;;;;;;;;;;;;;;5066186;28;19916;-68
2022/01/15 15:10:24;;;;;;;;;;;;;;;;;;5064178;28;20296;-69
2022/01/15 15:12:54;;;;;;;;;;;;;;;;;;5066373;28;19947;-69
2022/01/15 15:15:20;;;;;;;;;;;;;;;;;;5064048;28;20403;-68
2022/01/15 15:17:48;;;;;;;;;;;;;;;;;;5057607;28;19916;-68
2022/01/15 15:20:15;;;;;;;;;;;;;;;;;;5058536;28;19921;-68
2022/01/15 15:22:40;;;;;;;;;;;;;;;;;;5064588;28;19916;-68
2022/01/15 15:25:07;;;;;;;;;;;;;;;;;;5059804;28;19986;-68
2022/01/15 15:27:32;;;;;;;;;;;;;;;;;;5072484;28;19921;-68
2022/01/15 15:29:57;;;;;;;;;;;;;;;;;;5058236;28;19944;-68
2022/01/15 15:32:22;;;;;;;;;;;;;;;;;;5064312;28;19943;-68
2022/01/15 15:34:48;;;;;;;;;;;;;;;;;;5061409;28;19921;-68
2022/01/15 15:37:13;;;;;;;;;;;;;;;;;;5060088;28;19921;-68
2022/01/15 15:39:38;;;;;;;;;;;;;;;;;;5059477;28;19920;-68
2022/01/15 15:42:11;;;;;;;;;;;;;;;;;;5063580;28;19921;-68
2022/01/15 15:44:36;;;;;;;;;;;;;;;;;;5062023;28;20019;-68
2022/01/15 15:47:01;;;;;;;;;;;;;;;;;;5062120;28;20023;-69
2022/01/15 15:49:26;;;;;;;;;;;;;;;;;;5060616;28;19924;-68
2022/01/15 15:51:51;;;;;;;;;;;;;;;;;;5060115;28;19967;-68
2022/01/15 15:54:17;;;;;;;;;;;;;;;;;;5066863;28;19916;-68
2022/01/15 15:56:42;;;;;;;;;;;;;;;;;;5061386;28;19935;-69
2022/01/15 15:59:07;;;;;;;;;;;;;;;;;;5061064;28;19916;-68
2022/01/15 16:01:32;;;;;;;;;;;;;;;;;;5060466;28;19931;-68
2022/01/15 16:03:57;;;;;;;;;;;;;;;;;;5062543;28;19924;-68
2022/01/15 16:06:22;;;;;;;;;;;;;;;;;;5061604;28;19920;-68
2022/01/15 16:08:49;;;;;;;;;;;;;;;;;;5061057;28;19940;-68
2022/01/15 16:11:16;;;;;;;;;;;;;;;;;;5053454;28;19928;-68
2022/01/15 16:13:41;;;;;;;;;;;;;;;;;;5065526;28;19921;-68
2022/01/15 16:16:06;;;;;;;;;;;;;;;;;;5070431;28;20372;-68
2022/01/15 16:18:32;;;;;;;;;;;;;;;;;;5069492;28;20273;-68
2022/01/15 16:20:57;;;;;;;;;;;;;;;;;;5061913;28;19916;-68
2022/01/15 16:23:24;;;;;;;;;;;;;;;;;;5060584;28;19931;-68
2022/01/15 16:25:50;;;;;;;;;;;;;;;;;;5070552;28;20554;-68
2022/01/15 16:28:15;;;;;;;;;;;;;;;;;;5070503;28;19923;-68
2022/01/15 16:30:40;;;;;;;;;;;;;;;;;;5060394;28;19921;-69
2022/01/15 16:33:05;;;;;;;;;;;;;;;;;;5060990;28;19926;-69
2022/01/15 16:35:30;;;;;;;;;;;;;;;;;;5063598;28;19920;-68
2022/01/15 16:37:55;;;;;;;;;;;;;;;;;;5061725;28;20485;-69
2022/01/15 16:40:20;;;;;;;;;;;;;;;;;;5061487;28;19962;-68
2022/01/15 16:42:46;;;;;;;;;;;;;;;;;;5063001;28;20025;-68
2022/01/15 16:45:11;;;;;;;;;;;;;;;;;;5063376;28;19963;-68
2022/01/15 16:47:36;;;;;;;;;;;;;;;;;;5067412;28;19954;-68
2022/01/15 16:50:05;;;;;;;;;;;;;;;;;;5061151;28;20714;-68
2022/01/15 16:52:30;;;;;;;;;;;;;;;;;;5060620;28;19999;-68
2022/01/15 16:54:55;;;;;;;;;;;;;;;;;;5061874;28;20518;-68
2022/01/15 16:57:20;;;;;;;;;;;;;;;;;;5059674;28;20630;-68
2022/01/15 16:59:45;;;;;;;;;;;;;;;;;;5058629;28;20315;-68
2022/01/15 17:02:10;;;;;;;;;;;;;;;;;;5058719;28;20436;-69
2022/01/15 17:04:36;;;;;;;;;;;;;;;;;;5059553;28;19917;-68
2022/01/15 17:07:01;;;;;;;;;;;;;;;;;;5061693;28;19919;-68
2022/01/15 17:09:26;;;;;;;;;;;;;;;;;;5060742;28;19916;-68